sensor_id;sensor_type;location;lat;lon;timestamp;P1;durP1;ratioP1;P2;durP2;ratioP2
17398;SDS011;8817;48.170;8.592;2023-02-05T00:01:19;8.10;;;5.80;;
17398;SDS011;8817;48.170;8.592;2023-02-05T00:03:47;6.50;;;5.90;;
17398;SDS011;8817;48.170;8.592;2023-02-05T00:06:14;6.37;;;5.60;;
17398;SDS011;8817;48.170;8.592;2023-02-05T00:08:41;6.07;;;5.53;;
17398;SDS011;8817;48.170;8.592;2023-02-05T00:11:08;6.70;;;6.00;;
17398;SDS011;8817;48.170;8.592;2023-02-05T00:13:35;8.93;;;6.03;;
17398;SDS011;8817;48.170;8.592;2023-02-05T00:16:05;5.60;;;5.20;;
17398;SDS011;8817;48.170;8.592;2023-02-05T00:18:35;7.90;;;5.77;;
17398;SDS011;8817;48.170;8.592;2023-02-05T00:21:02;6.37;;;5.73;;
17398;SDS011;8817;48.170;8.592;2023-02-05T00:23:29;5.83;;;5.43;;
17398;SDS011;8817;48.170;8.592;2023-02-05T00:25:56;8.93;;;6.13;;
17398;SDS011;8817;48.170;8.592;2023-02-05T00:28:23;7.03;;;6.20;;
17398;SDS011;8817;48.170;8.592;2023-02-05T00:30:50;6.20;;;5.60;;
17398;SDS011;8817;48.170;8.592;2023-02-05T00:33:17;8.33;;;5.97;;
17398;SDS011;8817;48.170;8.592;2023-02-05T00:35:47;6.37;;;5.70;;
17398;SDS011;8817;48.170;8.592;2023-02-05T00:38:14;6.23;;;5.50;;
17398;SDS011;8817;48.170;8.592;2023-02-05T00:40:42;5.87;;;5.47;;
17398;SDS011;8817;48.170;8.592;2023-02-05T00:43:09;11.30;;;5.90;;
17398;SDS011;8817;48.170;8.592;2023-02-05T00:45:36;6.17;;;5.63;;
17398;SDS011;8817;48.170;8.592;2023-02-05T00:48:03;10.17;;;5.90;;
17398;SDS011;8817;48.170;8.592;2023-02-05T00:50:30;6.47;;;5.27;;
17398;SDS011;8817;48.170;8.592;2023-02-05T00:52:59;8.90;;;5.70;;
17398;SDS011;8817;48.170;8.592;2023-02-05T00:55:27;5.87;;;5.37;;
17398;SDS011;8817;48.170;8.592;2023-02-05T00:57:54;10.30;;;5.60;;
17398;SDS011;8817;48.170;8.592;2023-02-05T01:00:21;9.23;;;5.63;;
17398;SDS011;8817;48.170;8.592;2023-02-05T01:02:48;8.17;;;6.23;;
17398;SDS011;8817;48.170;8.592;2023-02-05T01:05:15;6.07;;;5.47;;
17398;SDS011;8817;48.170;8.592;2023-02-05T01:07:42;7.63;;;5.60;;
17398;SDS011;8817;48.170;8.592;2023-02-05T01:10:10;6.40;;;5.80;;
17398;SDS011;8817;48.170;8.592;2023-02-05T01:12:37;6.30;;;5.70;;
17398;SDS011;8817;48.170;8.592;2023-02-05T01:15:05;12.27;;;5.63;;
17398;SDS011;8817;48.170;8.592;2023-02-05T01:17:33;6.27;;;5.60;;
17398;SDS011;8817;48.170;8.592;2023-02-05T01:20:00;6.40;;;5.80;;
17398;SDS011;8817;48.170;8.592;2023-02-05T01:22:27;5.83;;;5.33;;
17398;SDS011;8817;48.170;8.592;2023-02-05T01:24:54;6.47;;;5.87;;
17398;SDS011;8817;48.170;8.592;2023-02-05T01:27:22;7.03;;;5.87;;
17398;SDS011;8817;48.170;8.592;2023-02-05T01:29:49;5.97;;;5.40;;
17398;SDS011;8817;48.170;8.592;2023-02-05T01:32:16;26.03;;;6.93;;
17398;SDS011;8817;48.170;8.592;2023-02-05T01:34:43;9.07;;;6.13;;
17398;SDS011;8817;48.170;8.592;2023-02-05T01:37:11;8.03;;;6.13;;
17398;SDS011;8817;48.170;8.592;2023-02-05T01:39:37;8.40;;;5.60;;
17398;SDS011;8817;48.170;8.592;2023-02-05T01:42:09;6.07;;;5.60;;
17398;SDS011;8817;48.170;8.592;2023-02-05T01:44:43;6.40;;;5.50;;
17398;SDS011;8817;48.170;8.592;2023-02-05T01:47:33;6.10;;;5.53;;
17398;SDS011;8817;48.170;8.592;2023-02-05T01:50:00;8.07;;;6.17;;
17398;SDS011;8817;48.170;8.592;2023-02-05T01:52:27;6.07;;;5.40;;
17398;SDS011;8817;48.170;8.592;2023-02-05T01:54:54;7.47;;;6.03;;
17398;SDS011;8817;48.170;8.592;2023-02-05T01:57:21;7.40;;;5.70;;
17398;SDS011;8817;48.170;8.592;2023-02-05T01:59:52;6.23;;;5.60;;
17398;SDS011;8817;48.170;8.592;2023-02-05T02:02:19;6.00;;;5.53;;
17398;SDS011;8817;48.170;8.592;2023-02-05T02:04:46;8.10;;;6.13;;
17398;SDS011;8817;48.170;8.592;2023-02-05T02:07:17;6.13;;;5.67;;
17398;SDS011;8817;48.170;8.592;2023-02-05T02:09:47;7.23;;;6.37;;
17398;SDS011;8817;48.170;8.592;2023-02-05T02:12:19;5.97;;;5.50;;
17398;SDS011;8817;48.170;8.592;2023-02-05T02:14:50;12.90;;;5.80;;
17398;SDS011;8817;48.170;8.592;2023-02-05T02:17:20;6.23;;;5.63;;
17398;SDS011;8817;48.170;8.592;2023-02-05T02:19:49;10.90;;;5.80;;
17398;SDS011;8817;48.170;8.592;2023-02-05T02:22:31;5.90;;;5.40;;
17398;SDS011;8817;48.170;8.592;2023-02-05T02:25:19;7.70;;;5.77;;
17398;SDS011;8817;48.170;8.592;2023-02-05T02:28:09;5.80;;;5.33;;
17398;SDS011;8817;48.170;8.592;2023-02-05T02:30:40;10.23;;;5.90;;
17398;SDS011;8817;48.170;8.592;2023-02-05T02:33:11;5.60;;;5.20;;
17398;SDS011;8817;48.170;8.592;2023-02-05T02:35:44;6.00;;;5.50;;
17398;SDS011;8817;48.170;8.592;2023-02-05T02:38:17;6.07;;;5.40;;
17398;SDS011;8817;48.170;8.592;2023-02-05T02:40:52;6.17;;;5.60;;
17398;SDS011;8817;48.170;8.592;2023-02-05T02:43:22;5.97;;;5.47;;
17398;SDS011;8817;48.170;8.592;2023-02-05T02:45:54;7.33;;;5.77;;
17398;SDS011;8817;48.170;8.592;2023-02-05T02:48:27;6.37;;;5.73;;
17398;SDS011;8817;48.170;8.592;2023-02-05T02:50:56;6.83;;;6.13;;
17398;SDS011;8817;48.170;8.592;2023-02-05T02:53:25;6.50;;;5.80;;
17398;SDS011;8817;48.170;8.592;2023-02-05T02:55:54;7.13;;;5.50;;
17398;SDS011;8817;48.170;8.592;2023-02-05T02:58:26;7.47;;;6.00;;
17398;SDS011;8817;48.170;8.592;2023-02-05T03:00:58;5.27;;;4.97;;
17398;SDS011;8817;48.170;8.592;2023-02-05T03:03:29;5.80;;;5.40;;
17398;SDS011;8817;48.170;8.592;2023-02-05T03:06:01;8.27;;;5.83;;
17398;SDS011;8817;48.170;8.592;2023-02-05T03:08:32;7.60;;;5.80;;
17398;SDS011;8817;48.170;8.592;2023-02-05T03:11:04;5.47;;;5.07;;
17398;SDS011;8817;48.170;8.592;2023-02-05T03:13:38;6.33;;;5.70;;
17398;SDS011;8817;48.170;8.592;2023-02-05T03:16:06;5.53;;;5.00;;
17398;SDS011;8817;48.170;8.592;2023-02-05T03:18:34;6.23;;;5.50;;
17398;SDS011;8817;48.170;8.592;2023-02-05T03:21:03;9.33;;;5.47;;
17398;SDS011;8817;48.170;8.592;2023-02-05T03:23:34;5.63;;;5.23;;
17398;SDS011;8817;48.170;8.592;2023-02-05T03:26:01;7.43;;;6.30;;
17398;SDS011;8817;48.170;8.592;2023-02-05T03:28:28;7.77;;;5.80;;
17398;SDS011;8817;48.170;8.592;2023-02-05T03:30:58;8.63;;;6.00;;
17398;SDS011;8817;48.170;8.592;2023-02-05T03:33:38;6.20;;;5.70;;
17398;SDS011;8817;48.170;8.592;2023-02-05T03:36:13;5.63;;;5.13;;
17398;SDS011;8817;48.170;8.592;2023-02-05T03:38:48;12.00;;;6.70;;
17398;SDS011;8817;48.170;8.592;2023-02-05T03:41:30;6.97;;;5.83;;
17398;SDS011;8817;48.170;8.592;2023-02-05T03:44:21;10.53;;;5.73;;
17398;SDS011;8817;48.170;8.592;2023-02-05T03:46:57;9.10;;;6.30;;
17398;SDS011;8817;48.170;8.592;2023-02-05T03:49:29;5.97;;;5.47;;
17398;SDS011;8817;48.170;8.592;2023-02-05T03:52:07;5.97;;;5.40;;
17398;SDS011;8817;48.170;8.592;2023-02-05T03:54:39;8.17;;;6.13;;
17398;SDS011;8817;48.170;8.592;2023-02-05T03:57:11;6.53;;;5.90;;
17398;SDS011;8817;48.170;8.592;2023-02-05T03:59:43;10.10;;;6.00;;
17398;SDS011;8817;48.170;8.592;2023-02-05T04:02:13;5.53;;;5.13;;
17398;SDS011;8817;48.170;8.592;2023-02-05T04:04:41;7.17;;;6.03;;
17398;SDS011;8817;48.170;8.592;2023-02-05T04:07:08;5.33;;;5.00;;
17398;SDS011;8817;48.170;8.592;2023-02-05T04:09:35;6.97;;;6.00;;
17398;SDS011;8817;48.170;8.592;2023-02-05T04:12:02;6.50;;;5.80;;
17398;SDS011;8817;48.170;8.592;2023-02-05T04:14:29;6.77;;;6.17;;
17398;SDS011;8817;48.170;8.592;2023-02-05T04:16:56;6.87;;;5.90;;
17398;SDS011;8817;48.170;8.592;2023-02-05T04:19:24;7.37;;;5.77;;
17398;SDS011;8817;48.170;8.592;2023-02-05T04:21:51;6.47;;;5.87;;
17398;SDS011;8817;48.170;8.592;2023-02-05T04:24:18;6.13;;;5.63;;
17398;SDS011;8817;48.170;8.592;2023-02-05T04:26:45;6.50;;;5.77;;
17398;SDS011;8817;48.170;8.592;2023-02-05T04:29:12;7.67;;;5.40;;
17398;SDS011;8817;48.170;8.592;2023-02-05T04:31:39;8.03;;;4.97;;
17398;SDS011;8817;48.170;8.592;2023-02-05T04:34:06;5.83;;;5.33;;
17398;SDS011;8817;48.170;8.592;2023-02-05T04:36:34;6.00;;;5.47;;
17398;SDS011;8817;48.170;8.592;2023-02-05T04:39:01;5.67;;;5.13;;
17398;SDS011;8817;48.170;8.592;2023-02-05T04:41:28;5.23;;;4.90;;
17398;SDS011;8817;48.170;8.592;2023-02-05T04:43:54;5.93;;;5.40;;
17398;SDS011;8817;48.170;8.592;2023-02-05T04:46:21;5.47;;;5.00;;
17398;SDS011;8817;48.170;8.592;2023-02-05T04:48:48;9.60;;;5.27;;
17398;SDS011;8817;48.170;8.592;2023-02-05T04:51:15;5.00;;;4.70;;
17398;SDS011;8817;48.170;8.592;2023-02-05T04:53:43;4.87;;;4.50;;
17398;SDS011;8817;48.170;8.592;2023-02-05T04:56:11;5.40;;;5.00;;
17398;SDS011;8817;48.170;8.592;2023-02-05T04:58:39;8.10;;;4.93;;
17398;SDS011;8817;48.170;8.592;2023-02-05T05:01:09;6.30;;;5.27;;
17398;SDS011;8817;48.170;8.592;2023-02-05T05:03:37;5.23;;;4.90;;
17398;SDS011;8817;48.170;8.592;2023-02-05T05:06:04;6.13;;;4.90;;
17398;SDS011;8817;48.170;8.592;2023-02-05T05:08:31;5.73;;;5.23;;
17398;SDS011;8817;48.170;8.592;2023-02-05T05:11:04;7.53;;;5.40;;
17398;SDS011;8817;48.170;8.592;2023-02-05T05:13:31;6.23;;;5.63;;
17398;SDS011;8817;48.170;8.592;2023-02-05T05:15:59;7.57;;;5.87;;
17398;SDS011;8817;48.170;8.592;2023-02-05T05:18:26;5.60;;;5.10;;
17398;SDS011;8817;48.170;8.592;2023-02-05T05:20:53;6.60;;;5.43;;
17398;SDS011;8817;48.170;8.592;2023-02-05T05:23:20;9.37;;;6.17;;
17398;SDS011;8817;48.170;8.592;2023-02-05T05:25:47;7.03;;;5.43;;
17398;SDS011;8817;48.170;8.592;2023-02-05T05:28:16;6.30;;;5.70;;
17398;SDS011;8817;48.170;8.592;2023-02-05T05:30:43;5.30;;;4.93;;
17398;SDS011;8817;48.170;8.592;2023-02-05T05:33:11;5.20;;;4.80;;
17398;SDS011;8817;48.170;8.592;2023-02-05T05:35:38;5.00;;;4.70;;
17398;SDS011;8817;48.170;8.592;2023-02-05T05:38:05;4.47;;;4.33;;
17398;SDS011;8817;48.170;8.592;2023-02-05T05:40:32;4.90;;;4.70;;
17398;SDS011;8817;48.170;8.592;2023-02-05T05:43:19;6.77;;;4.90;;
17398;SDS011;8817;48.170;8.592;2023-02-05T05:46:04;4.97;;;4.77;;
17398;SDS011;8817;48.170;8.592;2023-02-05T05:48:32;8.00;;;4.73;;
17398;SDS011;8817;48.170;8.592;2023-02-05T05:50:59;5.83;;;5.27;;
17398;SDS011;8817;48.170;8.592;2023-02-05T05:53:26;7.40;;;5.27;;
17398;SDS011;8817;48.170;8.592;2023-02-05T05:55:53;5.57;;;5.17;;
17398;SDS011;8817;48.170;8.592;2023-02-05T05:58:22;7.40;;;5.50;;
17398;SDS011;8817;48.170;8.592;2023-02-05T06:00:49;4.50;;;4.30;;
17398;SDS011;8817;48.170;8.592;2023-02-05T06:03:16;5.40;;;5.07;;
17398;SDS011;8817;48.170;8.592;2023-02-05T06:05:43;5.40;;;5.10;;
17398;SDS011;8817;48.170;8.592;2023-02-05T06:08:09;5.10;;;4.80;;
17398;SDS011;8817;48.170;8.592;2023-02-05T06:10:38;4.70;;;4.43;;
17398;SDS011;8817;48.170;8.592;2023-02-05T06:13:04;4.83;;;4.60;;
17398;SDS011;8817;48.170;8.592;2023-02-05T06:15:33;5.23;;;5.03;;
17398;SDS011;8817;48.170;8.592;2023-02-05T06:18:00;5.30;;;5.00;;
17398;SDS011;8817;48.170;8.592;2023-02-05T06:20:27;6.47;;;4.97;;
17398;SDS011;8817;48.170;8.592;2023-02-05T06:22:53;5.93;;;5.40;;
17398;SDS011;8817;48.170;8.592;2023-02-05T06:25:20;5.40;;;5.00;;
17398;SDS011;8817;48.170;8.592;2023-02-05T06:27:47;5.73;;;5.20;;
17398;SDS011;8817;48.170;8.592;2023-02-05T06:30:14;5.63;;;5.30;;
17398;SDS011;8817;48.170;8.592;2023-02-05T06:32:42;7.13;;;6.43;;
17398;SDS011;8817;48.170;8.592;2023-02-05T06:35:09;5.57;;;5.17;;
17398;SDS011;8817;48.170;8.592;2023-02-05T06:37:36;5.70;;;5.20;;
17398;SDS011;8817;48.170;8.592;2023-02-05T06:40:03;9.33;;;5.47;;
17398;SDS011;8817;48.170;8.592;2023-02-05T06:42:30;6.07;;;5.57;;
17398;SDS011;8817;48.170;8.592;2023-02-05T06:44:57;6.43;;;5.23;;
17398;SDS011;8817;48.170;8.592;2023-02-05T06:47:24;13.27;;;5.50;;
17398;SDS011;8817;48.170;8.592;2023-02-05T06:49:52;6.13;;;5.53;;
17398;SDS011;8817;48.170;8.592;2023-02-05T06:52:19;7.83;;;5.50;;
17398;SDS011;8817;48.170;8.592;2023-02-05T06:54:46;5.50;;;5.20;;
17398;SDS011;8817;48.170;8.592;2023-02-05T06:57:13;6.17;;;5.53;;
17398;SDS011;8817;48.170;8.592;2023-02-05T06:59:40;6.03;;;5.10;;
17398;SDS011;8817;48.170;8.592;2023-02-05T07:02:08;5.93;;;5.43;;
17398;SDS011;8817;48.170;8.592;2023-02-05T07:04:38;9.93;;;6.07;;
17398;SDS011;8817;48.170;8.592;2023-02-05T07:07:06;6.33;;;5.70;;
17398;SDS011;8817;48.170;8.592;2023-02-05T07:09:33;5.40;;;5.20;;
17398;SDS011;8817;48.170;8.592;2023-02-05T07:12:00;5.43;;;5.10;;
17398;SDS011;8817;48.170;8.592;2023-02-05T07:14:27;6.13;;;5.53;;
17398;SDS011;8817;48.170;8.592;2023-02-05T07:16:55;8.30;;;6.63;;
17398;SDS011;8817;48.170;8.592;2023-02-05T07:19:22;10.40;;;7.13;;
17398;SDS011;8817;48.170;8.592;2023-02-05T07:21:49;12.63;;;7.60;;
17398;SDS011;8817;48.170;8.592;2023-02-05T07:24:17;14.47;;;7.67;;
17398;SDS011;8817;48.170;8.592;2023-02-05T07:26:44;10.70;;;7.33;;
17398;SDS011;8817;48.170;8.592;2023-02-05T07:29:11;10.03;;;7.50;;
17398;SDS011;8817;48.170;8.592;2023-02-05T07:31:38;9.73;;;7.10;;
17398;SDS011;8817;48.170;8.592;2023-02-05T07:34:05;8.57;;;6.07;;
17398;SDS011;8817;48.170;8.592;2023-02-05T07:36:32;5.10;;;4.90;;
17398;SDS011;8817;48.170;8.592;2023-02-05T07:38:59;10.30;;;6.13;;
17398;SDS011;8817;48.170;8.592;2023-02-05T07:41:27;7.97;;;5.20;;
17398;SDS011;8817;48.170;8.592;2023-02-05T07:43:54;5.90;;;5.50;;
17398;SDS011;8817;48.170;8.592;2023-02-05T07:46:21;6.03;;;5.20;;
17398;SDS011;8817;48.170;8.592;2023-02-05T07:48:48;5.53;;;5.03;;
17398;SDS011;8817;48.170;8.592;2023-02-05T07:51:16;5.73;;;5.40;;
17398;SDS011;8817;48.170;8.592;2023-02-05T07:53:44;5.27;;;4.93;;
17398;SDS011;8817;48.170;8.592;2023-02-05T07:56:11;5.80;;;5.17;;
17398;SDS011;8817;48.170;8.592;2023-02-05T07:58:40;4.77;;;4.50;;
17398;SDS011;8817;48.170;8.592;2023-02-05T08:01:07;5.20;;;4.83;;
17398;SDS011;8817;48.170;8.592;2023-02-05T08:03:34;4.67;;;4.50;;
17398;SDS011;8817;48.170;8.592;2023-02-05T08:06:02;4.60;;;4.40;;
17398;SDS011;8817;48.170;8.592;2023-02-05T08:08:30;5.67;;;4.60;;
17398;SDS011;8817;48.170;8.592;2023-02-05T08:10:58;6.30;;;4.50;;
17398;SDS011;8817;48.170;8.592;2023-02-05T08:13:27;4.83;;;4.57;;
17398;SDS011;8817;48.170;8.592;2023-02-05T08:15:55;5.17;;;4.77;;
17398;SDS011;8817;48.170;8.592;2023-02-05T08:18:22;4.93;;;4.70;;
17398;SDS011;8817;48.170;8.592;2023-02-05T08:20:50;7.30;;;5.00;;
17398;SDS011;8817;48.170;8.592;2023-02-05T08:23:18;5.00;;;4.70;;
17398;SDS011;8817;48.170;8.592;2023-02-05T08:25:45;4.70;;;4.40;;
17398;SDS011;8817;48.170;8.592;2023-02-05T08:28:12;5.67;;;5.17;;
17398;SDS011;8817;48.170;8.592;2023-02-05T08:30:39;5.63;;;5.23;;
17398;SDS011;8817;48.170;8.592;2023-02-05T08:33:08;5.30;;;4.83;;
17398;SDS011;8817;48.170;8.592;2023-02-05T08:35:35;6.57;;;5.13;;
17398;SDS011;8817;48.170;8.592;2023-02-05T08:38:02;6.00;;;5.43;;
17398;SDS011;8817;48.170;8.592;2023-02-05T08:40:29;12.83;;;6.17;;
17398;SDS011;8817;48.170;8.592;2023-02-05T08:42:56;6.03;;;5.53;;
17398;SDS011;8817;48.170;8.592;2023-02-05T08:45:24;5.20;;;4.80;;
17398;SDS011;8817;48.170;8.592;2023-02-05T08:47:51;6.47;;;5.30;;
17398;SDS011;8817;48.170;8.592;2023-02-05T08:50:20;9.40;;;4.77;;
17398;SDS011;8817;48.170;8.592;2023-02-05T08:52:48;5.53;;;5.13;;
17398;SDS011;8817;48.170;8.592;2023-02-05T08:55:15;12.63;;;6.67;;
17398;SDS011;8817;48.170;8.592;2023-02-05T08:57:43;17.27;;;6.57;;
17398;SDS011;8817;48.170;8.592;2023-02-05T09:00:10;7.17;;;6.23;;
17398;SDS011;8817;48.170;8.592;2023-02-05T09:02:39;5.87;;;5.33;;
17398;SDS011;8817;48.170;8.592;2023-02-05T09:05:06;5.40;;;4.97;;
17398;SDS011;8817;48.170;8.592;2023-02-05T09:07:34;5.53;;;5.03;;
17398;SDS011;8817;48.170;8.592;2023-02-05T09:10:02;5.60;;;5.13;;
17398;SDS011;8817;48.170;8.592;2023-02-05T09:12:29;6.97;;;5.53;;
17398;SDS011;8817;48.170;8.592;2023-02-05T09:14:56;5.37;;;4.97;;
17398;SDS011;8817;48.170;8.592;2023-02-05T09:17:23;7.00;;;6.30;;
17398;SDS011;8817;48.170;8.592;2023-02-05T09:19:50;7.57;;;5.80;;
17398;SDS011;8817;48.170;8.592;2023-02-05T09:22:17;6.23;;;5.67;;
17398;SDS011;8817;48.170;8.592;2023-02-05T09:24:46;7.43;;;5.50;;
17398;SDS011;8817;48.170;8.592;2023-02-05T09:27:13;6.67;;;6.07;;
17398;SDS011;8817;48.170;8.592;2023-02-05T09:29:40;10.97;;;5.77;;
17398;SDS011;8817;48.170;8.592;2023-02-05T09:32:07;5.87;;;5.50;;
17398;SDS011;8817;48.170;8.592;2023-02-05T09:34:34;6.60;;;6.00;;
17398;SDS011;8817;48.170;8.592;2023-02-05T09:37:00;6.17;;;5.63;;
17398;SDS011;8817;48.170;8.592;2023-02-05T09:39:28;5.63;;;5.23;;
17398;SDS011;8817;48.170;8.592;2023-02-05T09:41:58;5.70;;;5.20;;
17398;SDS011;8817;48.170;8.592;2023-02-05T09:44:41;5.60;;;5.20;;
17398;SDS011;8817;48.170;8.592;2023-02-05T09:47:17;5.93;;;5.53;;
17398;SDS011;8817;48.170;8.592;2023-02-05T09:49:49;7.40;;;5.53;;
17398;SDS011;8817;48.170;8.592;2023-02-05T09:52:21;5.93;;;5.47;;
17398;SDS011;8817;48.170;8.592;2023-02-05T09:54:53;6.27;;;5.67;;
17398;SDS011;8817;48.170;8.592;2023-02-05T09:57:29;5.67;;;5.27;;
17398;SDS011;8817;48.170;8.592;2023-02-05T09:59:58;5.70;;;5.20;;
17398;SDS011;8817;48.170;8.592;2023-02-05T10:02:25;5.67;;;5.27;;
17398;SDS011;8817;48.170;8.592;2023-02-05T10:04:56;6.57;;;5.80;;
17398;SDS011;8817;48.170;8.592;2023-02-05T10:07:32;8.67;;;5.33;;
17398;SDS011;8817;48.170;8.592;2023-02-05T10:10:17;7.97;;;5.90;;
17398;SDS011;8817;48.170;8.592;2023-02-05T10:12:54;5.93;;;5.33;;
17398;SDS011;8817;48.170;8.592;2023-02-05T10:15:52;5.83;;;5.27;;
17398;SDS011;8817;48.170;8.592;2023-02-05T10:18:33;6.43;;;5.60;;
17398;SDS011;8817;48.170;8.592;2023-02-05T10:21:15;5.80;;;5.20;;
17398;SDS011;8817;48.170;8.592;2023-02-05T10:23:54;5.90;;;5.40;;
17398;SDS011;8817;48.170;8.592;2023-02-05T10:26:33;6.53;;;5.87;;
17398;SDS011;8817;48.170;8.592;2023-02-05T10:29:10;6.73;;;6.03;;
17398;SDS011;8817;48.170;8.592;2023-02-05T10:32:06;7.87;;;6.73;;
17398;SDS011;8817;48.170;8.592;2023-02-05T10:34:45;6.67;;;6.07;;
17398;SDS011;8817;48.170;8.592;2023-02-05T10:37:18;10.80;;;7.53;;
17398;SDS011;8817;48.170;8.592;2023-02-05T10:39:49;9.80;;;6.07;;
17398;SDS011;8817;48.170;8.592;2023-02-05T10:42:21;8.17;;;6.30;;
17398;SDS011;8817;48.170;8.592;2023-02-05T10:44:57;8.83;;;6.73;;
17398;SDS011;8817;48.170;8.592;2023-02-05T10:47:36;8.90;;;6.70;;
17398;SDS011;8817;48.170;8.592;2023-02-05T10:50:13;7.23;;;6.57;;
17398;SDS011;8817;48.170;8.592;2023-02-05T10:52:45;9.37;;;6.83;;
17398;SDS011;8817;48.170;8.592;2023-02-05T10:55:12;9.93;;;6.10;;
17398;SDS011;8817;48.170;8.592;2023-02-05T10:57:39;5.90;;;5.47;;
17398;SDS011;8817;48.170;8.592;2023-02-05T11:00:13;6.27;;;5.77;;
17398;SDS011;8817;48.170;8.592;2023-02-05T11:02:45;6.40;;;5.90;;
17398;SDS011;8817;48.170;8.592;2023-02-05T11:05:15;6.83;;;6.23;;
17398;SDS011;8817;48.170;8.592;2023-02-05T11:07:48;9.33;;;6.73;;
17398;SDS011;8817;48.170;8.592;2023-02-05T11:10:17;5.87;;;5.37;;
17398;SDS011;8817;48.170;8.592;2023-02-05T11:12:45;7.00;;;5.67;;
17398;SDS011;8817;48.170;8.592;2023-02-05T11:15:19;10.33;;;6.33;;
17398;SDS011;8817;48.170;8.592;2023-02-05T11:17:52;6.20;;;5.70;;
17398;SDS011;8817;48.170;8.592;2023-02-05T11:20:22;5.80;;;5.40;;
17398;SDS011;8817;48.170;8.592;2023-02-05T11:23:03;6.00;;;5.27;;
17398;SDS011;8817;48.170;8.592;2023-02-05T11:25:33;6.50;;;5.93;;
17398;SDS011;8817;48.170;8.592;2023-02-05T11:28:01;9.17;;;5.83;;
17398;SDS011;8817;48.170;8.592;2023-02-05T11:30:33;6.20;;;5.60;;
17398;SDS011;8817;48.170;8.592;2023-02-05T11:33:15;6.17;;;5.60;;
17398;SDS011;8817;48.170;8.592;2023-02-05T11:35:50;6.33;;;5.77;;
17398;SDS011;8817;48.170;8.592;2023-02-05T11:38:23;6.53;;;5.93;;
17398;SDS011;8817;48.170;8.592;2023-02-05T11:40:55;6.87;;;6.17;;
17398;SDS011;8817;48.170;8.592;2023-02-05T11:43:25;6.00;;;5.50;;
17398;SDS011;8817;48.170;8.592;2023-02-05T11:45:57;6.07;;;5.60;;
17398;SDS011;8817;48.170;8.592;2023-02-05T11:48:27;6.30;;;5.53;;
17398;SDS011;8817;48.170;8.592;2023-02-05T11:50:59;7.67;;;5.67;;
17398;SDS011;8817;48.170;8.592;2023-02-05T11:53:27;5.73;;;5.23;;
17398;SDS011;8817;48.170;8.592;2023-02-05T11:55:57;5.90;;;5.50;;
17398;SDS011;8817;48.170;8.592;2023-02-05T11:58:27;5.93;;;5.43;;
17398;SDS011;8817;48.170;8.592;2023-02-05T12:00:58;6.13;;;5.53;;
17398;SDS011;8817;48.170;8.592;2023-02-05T12:03:26;5.83;;;5.33;;
17398;SDS011;8817;48.170;8.592;2023-02-05T12:05:59;6.30;;;5.70;;
17398;SDS011;8817;48.170;8.592;2023-02-05T12:08:35;6.50;;;5.80;;
17398;SDS011;8817;48.170;8.592;2023-02-05T12:11:19;6.20;;;5.80;;
17398;SDS011;8817;48.170;8.592;2023-02-05T12:13:55;6.03;;;5.53;;
17398;SDS011;8817;48.170;8.592;2023-02-05T12:16:38;13.13;;;6.40;;
17398;SDS011;8817;48.170;8.592;2023-02-05T12:19:14;6.40;;;5.93;;
17398;SDS011;8817;48.170;8.592;2023-02-05T12:21:47;6.40;;;5.90;;
17398;SDS011;8817;48.170;8.592;2023-02-05T12:27:19;9.17;;;5.83;;
17398;SDS011;8817;48.170;8.592;2023-02-05T12:29:59;8.17;;;6.03;;
17398;SDS011;8817;48.170;8.592;2023-02-05T12:32:39;7.13;;;6.13;;
17398;SDS011;8817;48.170;8.592;2023-02-05T12:35:23;6.80;;;6.10;;
17398;SDS011;8817;48.170;8.592;2023-02-05T12:38:05;6.57;;;5.97;;
17398;SDS011;8817;48.170;8.592;2023-02-05T12:40:40;6.53;;;5.90;;
17398;SDS011;8817;48.170;8.592;2023-02-05T12:43:24;7.23;;;6.50;;
17398;SDS011;8817;48.170;8.592;2023-02-05T12:45:59;8.57;;;6.23;;
17398;SDS011;8817;48.170;8.592;2023-02-05T12:48:48;11.50;;;6.50;;
17398;SDS011;8817;48.170;8.592;2023-02-05T12:51:35;7.83;;;6.23;;
17398;SDS011;8817;48.170;8.592;2023-02-05T12:54:23;7.10;;;6.20;;
17398;SDS011;8817;48.170;8.592;2023-02-05T12:57:07;6.57;;;5.93;;
17398;SDS011;8817;48.170;8.592;2023-02-05T12:59:37;10.33;;;6.90;;
17398;SDS011;8817;48.170;8.592;2023-02-05T13:02:13;7.37;;;6.53;;
17398;SDS011;8817;48.170;8.592;2023-02-05T13:04:47;10.33;;;7.03;;
17398;SDS011;8817;48.170;8.592;2023-02-05T13:07:22;6.87;;;6.17;;
17398;SDS011;8817;48.170;8.592;2023-02-05T13:09:57;6.87;;;6.27;;
17398;SDS011;8817;48.170;8.592;2023-02-05T13:12:28;7.43;;;6.10;;
17398;SDS011;8817;48.170;8.592;2023-02-05T13:15:01;6.60;;;6.13;;
17398;SDS011;8817;48.170;8.592;2023-02-05T13:17:34;13.90;;;6.63;;
17398;SDS011;8817;48.170;8.592;2023-02-05T13:20:09;6.10;;;5.40;;
17398;SDS011;8817;48.170;8.592;2023-02-05T13:22:46;6.27;;;5.73;;
17398;SDS011;8817;48.170;8.592;2023-02-05T13:25:37;6.53;;;6.03;;
17398;SDS011;8817;48.170;8.592;2023-02-05T13:28:28;8.47;;;6.60;;
17398;SDS011;8817;48.170;8.592;2023-02-05T13:31:08;13.33;;;6.90;;
17398;SDS011;8817;48.170;8.592;2023-02-05T13:33:49;16.80;;;7.57;;
17398;SDS011;8817;48.170;8.592;2023-02-05T13:36:25;13.00;;;7.13;;
17398;SDS011;8817;48.170;8.592;2023-02-05T13:39:22;15.87;;;7.57;;
17398;SDS011;8817;48.170;8.592;2023-02-05T13:42:06;10.87;;;7.20;;
17398;SDS011;8817;48.170;8.592;2023-02-05T13:45:00;7.60;;;6.17;;
17398;SDS011;8817;48.170;8.592;2023-02-05T13:54:01;6.53;;;5.77;;
17398;SDS011;8817;48.170;8.592;2023-02-05T13:56:51;7.77;;;6.40;;
17398;SDS011;8817;48.170;8.592;2023-02-05T13:59:32;7.00;;;6.37;;
17398;SDS011;8817;48.170;8.592;2023-02-05T14:02:01;6.20;;;5.67;;
17398;SDS011;8817;48.170;8.592;2023-02-05T14:04:29;7.47;;;6.20;;
17398;SDS011;8817;48.170;8.592;2023-02-05T14:07:05;11.17;;;6.23;;
17398;SDS011;8817;48.170;8.592;2023-02-05T14:09:34;9.93;;;6.87;;
17398;SDS011;8817;48.170;8.592;2023-02-05T14:12:06;14.40;;;6.87;;
17398;SDS011;8817;48.170;8.592;2023-02-05T14:14:35;7.00;;;6.47;;
17398;SDS011;8817;48.170;8.592;2023-02-05T14:20:14;8.07;;;6.07;;
17398;SDS011;8817;48.170;8.592;2023-02-05T14:22:59;9.87;;;6.73;;
17398;SDS011;8817;48.170;8.592;2023-02-05T14:28:44;10.67;;;7.00;;
17398;SDS011;8817;48.170;8.592;2023-02-05T14:34:42;11.93;;;8.30;;
17398;SDS011;8817;48.170;8.592;2023-02-05T14:37:32;20.97;;;7.70;;
17398;SDS011;8817;48.170;8.592;2023-02-05T14:40:25;12.00;;;7.77;;
17398;SDS011;8817;48.170;8.592;2023-02-05T14:42:57;7.97;;;7.23;;
17398;SDS011;8817;48.170;8.592;2023-02-05T14:45:30;10.73;;;8.00;;
17398;SDS011;8817;48.170;8.592;2023-02-05T14:47:57;13.57;;;8.70;;
17398;SDS011;8817;48.170;8.592;2023-02-05T14:50:26;11.07;;;8.10;;
17398;SDS011;8817;48.170;8.592;2023-02-05T14:52:55;18.87;;;8.93;;
17398;SDS011;8817;48.170;8.592;2023-02-05T14:55:26;10.30;;;8.13;;
17398;SDS011;8817;48.170;8.592;2023-02-05T14:57:58;14.57;;;9.33;;
17398;SDS011;8817;48.170;8.592;2023-02-05T15:00:29;15.93;;;9.33;;
17398;SDS011;8817;48.170;8.592;2023-02-05T15:03:13;10.03;;;7.90;;
17398;SDS011;8817;48.170;8.592;2023-02-05T15:05:51;11.23;;;7.73;;
17398;SDS011;8817;48.170;8.592;2023-02-05T15:08:25;8.43;;;7.53;;
17398;SDS011;8817;48.170;8.592;2023-02-05T15:11:19;12.00;;;8.00;;
17398;SDS011;8817;48.170;8.592;2023-02-05T15:20:14;9.90;;;7.70;;
17398;SDS011;8817;48.170;8.592;2023-02-05T15:22:45;10.10;;;7.47;;
17398;SDS011;8817;48.170;8.592;2023-02-05T15:25:20;8.57;;;6.90;;
17398;SDS011;8817;48.170;8.592;2023-02-05T15:27:57;7.03;;;6.33;;
17398;SDS011;8817;48.170;8.592;2023-02-05T15:30:28;6.33;;;5.90;;
17398;SDS011;8817;48.170;8.592;2023-02-05T15:33:00;6.60;;;6.10;;
17398;SDS011;8817;48.170;8.592;2023-02-05T15:35:31;11.03;;;6.67;;
17398;SDS011;8817;48.170;8.592;2023-02-05T15:38:01;6.37;;;5.83;;
17398;SDS011;8817;48.170;8.592;2023-02-05T15:40:37;8.03;;;6.70;;
17398;SDS011;8817;48.170;8.592;2023-02-05T15:43:14;9.47;;;7.07;;
17398;SDS011;8817;48.170;8.592;2023-02-05T15:45:44;10.00;;;7.60;;
17398;SDS011;8817;48.170;8.592;2023-02-05T15:48:12;12.63;;;7.87;;
17398;SDS011;8817;48.170;8.592;2023-02-05T15:50:41;13.00;;;7.87;;